createdAt,value
2016-09-18T00:00:25.489Z,16.57
2016-09-18T00:01:36.490Z,16.52
2016-09-18T00:02:47.494Z,16.47
2016-09-18T00:03:58.505Z,16.52
2016-09-18T00:05:09.518Z,16.52
2016-09-18T00:06:20.723Z,16.52
2016-09-18T00:07:31.725Z,16.45
2016-09-18T00:08:42.723Z,16.37
2016-09-18T00:09:53.722Z,16.3
2016-09-18T00:11:04.719Z,16.33
2016-09-18T00:12:15.719Z,16.33
2016-09-18T00:13:26.717Z,16.36
2016-09-18T00:14:37.723Z,16.29
2016-09-18T00:15:48.731Z,16.25
2016-09-18T00:16:59.735Z,16.27
2016-09-18T00:18:10.759Z,16.26
2016-09-18T00:19:21.808Z,16.16
2016-09-18T00:20:32.811Z,16.13
2016-09-18T00:21:43.810Z,16.17
2016-09-18T00:22:54.817Z,16.14
2016-09-18T00:24:05.823Z,16.02
2016-09-18T00:25:16.822Z,16.04
2016-09-18T00:26:27.822Z,16.11
2016-09-18T00:27:38.822Z,16.06
2016-09-18T00:28:49.817Z,16.06
2016-09-18T00:30:00.822Z,16.07
2016-09-18T00:31:11.823Z,16.07
2016-09-18T00:32:22.825Z,15.99
2016-09-18T00:33:34.030Z,15.96
2016-09-18T00:34:45.035Z,15.98
2016-09-18T00:35:56.039Z,15.96
2016-09-18T00:37:07.037Z,15.99
2016-09-18T00:38:18.048Z,16.02
2016-09-18T00:39:29.052Z,15.98
2016-09-18T00:40:40.055Z,15.95
2016-09-18T00:41:51.054Z,15.96
2016-09-18T00:43:02.054Z,15.84
2016-09-18T00:44:13.061Z,15.83
2016-09-18T00:45:24.063Z,15.88
2016-09-18T00:46:35.062Z,15.92
2016-09-18T00:47:46.070Z,15.81
2016-09-18T00:48:57.082Z,15.86
2016-09-18T00:50:08.082Z,15.84
2016-09-18T00:51:19.076Z,15.88
2016-09-18T00:52:30.086Z,15.88
2016-09-18T00:53:41.092Z,15.77
2016-09-18T00:54:52.495Z,15.88
2016-09-18T00:56:03.499Z,15.84
2016-09-18T00:57:14.515Z,15.84
2016-09-18T00:58:25.523Z,15.71
2016-09-18T00:59:36.521Z,15.83
2016-09-18T01:00:47.516Z,15.8
2016-09-18T01:01:58.522Z,15.71
2016-09-18T01:03:09.517Z,15.75
2016-09-18T01:04:20.723Z,15.75
2016-09-18T01:05:31.717Z,15.68
2016-09-18T01:06:42.718Z,15.65
2016-09-18T01:07:53.725Z,15.59
2016-09-18T01:09:04.730Z,15.67
2016-09-18T01:10:15.732Z,15.65
2016-09-18T01:11:26.725Z,15.68
2016-09-18T01:12:37.930Z,15.75
2016-09-18T01:13:48.931Z,15.63
2016-09-18T01:14:59.932Z,15.67
2016-09-18T01:16:10.935Z,15.73
2016-09-18T01:17:21.937Z,15.74
2016-09-18T01:18:33.147Z,15.68
2016-09-18T01:19:44.153Z,15.67
2016-09-18T01:20:55.157Z,15.77
2016-09-18T01:22:06.155Z,15.68
2016-09-18T01:23:17.165Z,15.7
2016-09-18T01:24:28.161Z,15.75
2016-09-18T01:25:39.172Z,15.67
2016-09-18T01:26:50.182Z,15.74
2016-09-18T01:28:01.174Z,15.73
2016-09-18T01:29:12.175Z,15.67
2016-09-18T01:30:23.169Z,15.68
2016-09-18T01:31:34.167Z,15.81
2016-09-18T01:32:45.194Z,15.86
2016-09-18T01:33:56.396Z,15.84
2016-09-18T01:35:07.390Z,15.86
2016-09-18T01:36:18.390Z,15.8
2016-09-18T01:37:29.390Z,15.8
2016-09-18T01:38:40.394Z,15.93
2016-09-18T01:39:51.629Z,15.92
2016-09-18T01:41:02.638Z,15.91
2016-09-18T01:42:13.650Z,15.88
2016-09-18T01:43:24.649Z,15.86
2016-09-18T01:44:35.867Z,15.88
2016-09-18T01:45:46.881Z,15.89
2016-09-18T01:46:58.087Z,15.89
2016-09-18T01:48:09.091Z,15.92
2016-09-18T01:49:20.087Z,15.83
2016-09-18T01:50:31.093Z,15.93
2016-09-18T01:51:42.096Z,15.84
2016-09-18T01:52:53.092Z,15.92
2016-09-18T01:54:04.094Z,15.98
2016-09-18T01:55:15.290Z,15.95
2016-09-18T01:56:26.297Z,15.96
2016-09-18T01:57:37.304Z,15.96
2016-09-18T01:58:48.506Z,15.93
2016-09-18T01:59:59.516Z,15.88
2016-09-18T02:01:10.526Z,15.93
2016-09-18T02:02:21.530Z,16
2016-09-18T02:03:32.534Z,15.92
2016-09-18T02:04:43.533Z,15.95
2016-09-18T02:05:54.535Z,16.06
2016-09-18T02:07:05.738Z,16.06
2016-09-18T02:08:16.745Z,16.13
2016-09-18T02:09:27.750Z,16
2016-09-18T02:10:38.752Z,15.99
2016-09-18T02:11:49.765Z,16.04
2016-09-18T02:13:00.769Z,16.06
2016-09-18T02:14:11.769Z,16.04
2016-09-18T02:15:22.976Z,16.04
2016-09-18T02:16:33.988Z,16.04
2016-09-18T02:17:44.992Z,16.06
2016-09-18T02:18:56.194Z,16.16
2016-09-18T02:20:07.202Z,16.08
2016-09-18T02:21:18.203Z,16.18
2016-09-18T02:22:29.207Z,16.17
2016-09-18T02:23:40.201Z,16.08
2016-09-18T02:24:51.206Z,16.06
2016-09-18T02:26:02.214Z,16.13
2016-09-18T02:27:13.415Z,16.18
2016-09-18T02:28:24.421Z,16.18
2016-09-18T02:29:35.420Z,16.16
2016-09-18T02:30:46.429Z,16.21
2016-09-18T02:31:57.436Z,16.16
2016-09-18T02:33:08.433Z,16.16
2016-09-18T02:34:19.439Z,16.14
2016-09-18T02:35:30.445Z,16.21
2016-09-18T02:36:41.447Z,16.17
2016-09-18T02:37:52.649Z,16.13
2016-09-18T02:39:03.851Z,16.22
2016-09-18T02:40:14.856Z,16.17
2016-09-18T02:41:25.864Z,16.18
2016-09-18T02:42:36.875Z,16.17
2016-09-18T02:43:47.905Z,16.16
2016-09-18T02:44:58.922Z,16.11
2016-09-18T02:46:09.921Z,16.1
2016-09-18T02:47:20.927Z,16.07
2016-09-18T02:48:32.139Z,16.07
2016-09-18T02:49:43.145Z,16.16
2016-09-18T02:50:54.149Z,16.18
2016-09-18T02:52:05.150Z,16.1
2016-09-18T02:53:16.156Z,16.14
2016-09-18T02:54:27.162Z,16.13
2016-09-18T02:55:38.169Z,16.17
2016-09-18T02:56:49.173Z,16.17
2016-09-18T02:58:00.386Z,16.14
2016-09-18T02:59:11.389Z,16.27
2016-09-18T03:00:22.409Z,16.21
2016-09-18T03:01:33.411Z,16.22
2016-09-18T03:02:44.436Z,16.16
2016-09-18T03:03:55.640Z,16.21
2016-09-18T03:05:06.653Z,16.21
2016-09-18T03:06:17.863Z,16.26
2016-09-18T03:07:29.067Z,16.26
2016-09-18T03:08:40.074Z,16.3
2016-09-18T03:09:51.288Z,16.29
2016-09-18T03:11:02.294Z,16.27
2016-09-18T03:12:13.301Z,16.26
2016-09-18T03:13:24.316Z,16.3
2016-09-18T03:14:35.319Z,16.25
2016-09-18T03:15:46.321Z,16.29
2016-09-18T03:16:57.322Z,16.22
2016-09-18T03:18:08.322Z,16.27
2016-09-18T03:19:19.321Z,16.3
2016-09-18T03:20:30.323Z,16.32
2016-09-18T03:21:41.735Z,16.34
2016-09-18T03:22:52.952Z,16.36
2016-09-18T03:24:03.955Z,16.36
2016-09-18T03:25:14.953Z,16.37
2016-09-18T03:26:25.961Z,16.39
2016-09-18T03:27:36.949Z,16.45
2016-09-18T03:28:47.962Z,16.36
2016-09-18T03:29:58.963Z,16.42
2016-09-18T03:31:09.986Z,16.36
2016-09-18T03:32:21.194Z,16.33
2016-09-18T03:33:32.409Z,16.39
2016-09-18T03:34:43.411Z,16.33
2016-09-18T03:35:54.413Z,16.37
2016-09-18T03:37:05.413Z,16.36
2016-09-18T03:38:16.425Z,16.39
2016-09-18T03:39:27.426Z,16.36
2016-09-18T03:40:38.425Z,16.42
2016-09-18T03:41:49.431Z,16.34
2016-09-18T03:43:00.434Z,16.42
2016-09-18T03:44:11.433Z,16.45
2016-09-18T03:45:22.438Z,16.39
2016-09-18T03:46:33.435Z,16.4
2016-09-18T03:47:44.440Z,16.44
2016-09-18T03:48:55.446Z,16.39
2016-09-18T03:50:06.445Z,16.37
2016-09-18T03:51:17.670Z,16.44
2016-09-18T03:52:28.666Z,16.36
2016-09-18T03:53:39.877Z,16.39
2016-09-18T03:54:50.883Z,16.45
2016-09-18T03:56:01.886Z,16.37
2016-09-18T03:57:12.901Z,16.47
2016-09-18T03:58:23.909Z,16.37
2016-09-18T03:59:34.914Z,16.39
2016-09-18T04:00:45.920Z,16.4
2016-09-18T04:01:56.932Z,16.42
2016-09-18T04:03:07.938Z,16.42
2016-09-18T04:04:18.939Z,16.44
2016-09-18T04:05:29.950Z,16.37
2016-09-18T04:06:40.954Z,16.39
2016-09-18T04:07:52.154Z,16.29
2016-09-18T04:09:03.156Z,16.33
2016-09-18T04:10:14.158Z,16.25
2016-09-18T04:11:25.365Z,16.25
2016-09-18T04:12:36.376Z,16.27
2016-09-18T04:13:47.384Z,16.17
2016-09-18T04:14:58.396Z,16.18
2016-09-18T04:16:09.413Z,16.11
2016-09-18T04:17:20.622Z,16.17
2016-09-18T04:18:31.622Z,16.22
2016-09-18T04:19:42.672Z,16.16
2016-09-18T04:20:53.676Z,16.16
2016-09-18T04:22:04.671Z,16.21
2016-09-18T04:23:15.671Z,16.11
2016-09-18T04:24:26.676Z,16.08
2016-09-18T04:25:37.680Z,16.1
2016-09-18T04:26:48.692Z,16.07
2016-09-18T04:27:59.696Z,16.1
2016-09-18T04:29:10.892Z,16.13
2016-09-18T04:30:21.970Z,16.13
2016-09-18T04:31:32.973Z,16.16
2016-09-18T04:32:44.183Z,16.1
2016-09-18T04:33:55.181Z,16.08
2016-09-18T04:35:06.385Z,16.16
2016-09-18T04:36:17.581Z,16.13
2016-09-18T04:37:28.781Z,16.08
2016-09-18T04:38:39.784Z,16.11
2016-09-18T04:39:50.787Z,16.11
2016-09-18T04:41:01.807Z,16.08
2016-09-18T04:42:12.807Z,16.02
2016-09-18T04:43:23.808Z,16.07
2016-09-18T04:44:35.007Z,16.13
2016-09-18T04:45:46.052Z,16.07
2016-09-18T04:46:57.054Z,16.04
2016-09-18T04:48:08.052Z,16.04
2016-09-18T04:49:19.073Z,16.02
2016-09-18T04:50:30.066Z,15.96
2016-09-18T04:51:41.069Z,15.92
2016-09-18T04:52:52.070Z,16
2016-09-18T04:54:03.072Z,15.96
2016-09-18T04:55:14.075Z,16
2016-09-18T04:56:25.062Z,15.93
2016-09-18T04:57:36.063Z,15.99
2016-09-18T04:58:47.068Z,15.96
2016-09-18T04:59:58.071Z,15.96
2016-09-18T05:01:09.275Z,15.88
2016-09-18T05:02:20.280Z,15.91
2016-09-18T05:03:31.279Z,15.83
2016-09-18T05:04:42.322Z,15.95
2016-09-18T05:05:53.329Z,15.84
2016-09-18T05:07:04.331Z,15.83
2016-09-18T05:08:15.538Z,15.95
2016-09-18T05:09:26.749Z,15.86
2016-09-18T05:10:37.751Z,15.95
2016-09-18T05:11:48.752Z,15.86
2016-09-18T05:12:59.756Z,15.89
2016-09-18T05:14:10.755Z,15.91
2016-09-18T05:15:21.961Z,15.96
2016-09-18T05:16:32.965Z,15.95
2016-09-18T05:17:43.964Z,15.93
2016-09-18T05:18:54.972Z,15.91
2016-09-18T05:20:06.018Z,15.99
2016-09-18T05:21:17.217Z,15.98
2016-09-18T05:22:28.228Z,15.92
2016-09-18T05:23:39.235Z,15.93
2016-09-18T05:24:50.239Z,15.96
2016-09-18T05:26:01.239Z,15.96
2016-09-18T05:27:12.233Z,15.96
2016-09-18T05:28:23.237Z,15.92
2016-09-18T05:29:34.239Z,15.93
2016-09-18T05:30:45.235Z,15.93
2016-09-18T05:31:56.235Z,15.91
2016-09-18T05:33:07.237Z,15.88
2016-09-18T05:34:18.645Z,15.95
2016-09-18T05:35:29.639Z,15.83
2016-09-18T05:36:40.637Z,15.86
2016-09-18T05:37:52.048Z,15.93
2016-09-18T05:39:03.046Z,15.83
2016-09-18T05:40:14.047Z,15.89
2016-09-18T05:41:25.045Z,15.84
2016-09-18T05:42:36.046Z,15.83
2016-09-18T05:43:47.049Z,15.83
2016-09-18T05:44:58.048Z,15.88
2016-09-18T05:46:09.055Z,15.86
2016-09-18T05:47:20.062Z,15.92
2016-09-18T05:48:31.058Z,15.92
2016-09-18T05:49:42.257Z,15.88
2016-09-18T05:50:53.255Z,15.81
2016-09-18T05:52:04.263Z,15.88
2016-09-18T05:53:15.266Z,15.91
2016-09-18T05:54:26.460Z,15.93
2016-09-18T05:55:37.464Z,15.92
2016-09-18T05:56:48.470Z,15.99
2016-09-18T05:57:59.470Z,15.99
2016-09-18T05:59:10.463Z,15.99
2016-09-18T06:00:21.470Z,15.92
2016-09-18T06:01:32.472Z,15.99
2016-09-18T06:02:43.471Z,15.98
2016-09-18T06:03:54.471Z,15.98
2016-09-18T06:05:05.471Z,15.93
2016-09-18T06:06:16.474Z,15.93
2016-09-18T06:07:27.675Z,15.95
2016-09-18T06:08:38.887Z,15.92
2016-09-18T06:09:50.088Z,16.02
2016-09-18T06:11:01.084Z,15.96
2016-09-18T06:12:12.069Z,15.92
2016-09-18T06:13:23.072Z,15.96
2016-09-18T06:14:34.073Z,15.96
2016-09-18T06:15:45.082Z,16.04
2016-09-18T06:16:56.082Z,15.93
2016-09-18T06:18:07.079Z,15.98
2016-09-18T06:19:18.078Z,15.92
2016-09-18T06:20:29.121Z,15.92
2016-09-18T06:21:40.610Z,15.95
2016-09-18T06:22:51.609Z,15.81
2016-09-18T06:24:02.816Z,15.89
2016-09-18T06:25:14.016Z,15.86
2016-09-18T06:26:25.021Z,15.93
2016-09-18T06:27:36.241Z,15.92
2016-09-18T06:28:47.436Z,15.83
2016-09-18T06:29:58.437Z,15.92
2016-09-18T06:31:09.434Z,15.95
2016-09-18T06:32:20.631Z,15.96
2016-09-18T06:33:31.623Z,15.91
2016-09-18T06:34:42.634Z,15.93
2016-09-18T06:35:53.634Z,15.96
2016-09-18T06:37:04.630Z,15.98
2016-09-18T06:38:15.824Z,15.96
2016-09-18T06:39:26.845Z,15.95
2016-09-18T06:40:37.848Z,15.96
2016-09-18T06:41:49.045Z,16
2016-09-18T06:43:00.450Z,15.96
2016-09-18T06:44:11.462Z,15.96
2016-09-18T06:45:22.470Z,15.93
2016-09-18T06:46:33.470Z,15.95
2016-09-18T06:47:44.466Z,15.93
2016-09-18T06:48:55.473Z,15.96
2016-09-18T06:50:06.468Z,15.98
2016-09-18T06:51:17.467Z,15.95
2016-09-18T06:52:28.470Z,15.93
2016-09-18T06:53:39.484Z,15.92
2016-09-18T06:54:50.488Z,15.95
2016-09-18T06:56:01.489Z,15.92
2016-09-18T06:57:12.504Z,15.88
2016-09-18T06:58:23.505Z,15.99
2016-09-18T06:59:34.503Z,15.89
2016-09-18T07:00:45.510Z,15.95
2016-09-18T07:01:56.510Z,15.98
2016-09-18T07:03:07.517Z,15.84
2016-09-18T07:04:18.511Z,15.88
2016-09-18T07:05:29.507Z,15.98
2016-09-18T07:06:40.724Z,15.95
2016-09-18T07:07:51.727Z,15.96
2016-09-18T07:09:02.931Z,16.02
2016-09-18T07:10:14.125Z,16.1
2016-09-18T07:11:25.126Z,16.04
2016-09-18T07:12:36.130Z,16.08
2016-09-18T07:13:47.134Z,16.04
2016-09-18T07:14:58.131Z,16.04
2016-09-18T07:16:09.132Z,16.14
2016-09-18T07:17:20.124Z,16
2016-09-18T07:18:31.126Z,16.07
2016-09-18T07:19:42.531Z,16.17
2016-09-18T07:20:53.591Z,16.07
2016-09-18T07:22:04.785Z,16.08
2016-09-18T07:23:15.788Z,16.18
2016-09-18T07:24:26.783Z,16.13
2016-09-18T07:25:37.984Z,16.08
2016-09-18T07:26:48.984Z,16.04
2016-09-18T07:27:59.982Z,16.1
2016-09-18T07:29:10.976Z,16.04
2016-09-18T07:30:21.981Z,16.07
2016-09-18T07:31:32.986Z,16.1
2016-09-18T07:32:43.987Z,16.07
2016-09-18T07:33:55.006Z,16.08
2016-09-18T07:35:06.016Z,16.07
2016-09-18T07:36:17.019Z,16.16
2016-09-18T07:37:28.017Z,16.16
2016-09-18T07:38:39.029Z,16.21
2016-09-18T07:39:50.044Z,16.16
2016-09-18T07:41:01.048Z,16.27
2016-09-18T07:42:12.044Z,16.13
2016-09-18T07:43:23.040Z,16.21
2016-09-18T07:44:34.240Z,16.25
2016-09-18T07:45:45.255Z,16.3
2016-09-18T07:46:56.460Z,16.29
2016-09-18T07:48:07.458Z,16.34
2016-09-18T07:49:18.467Z,16.3
2016-09-18T07:50:29.464Z,16.29
2016-09-18T07:51:40.485Z,16.21
2016-09-18T07:52:51.490Z,16.16
2016-09-18T07:54:02.497Z,16.17
2016-09-18T07:55:13.503Z,16.27
2016-09-18T07:56:24.511Z,16.25
2016-09-18T07:57:35.516Z,16.25
2016-09-18T07:58:46.522Z,16.32
2016-09-18T07:59:57.531Z,16.44
2016-09-18T08:01:08.546Z,16.37
2016-09-18T08:02:19.549Z,16.36
2016-09-18T08:03:30.558Z,16.4
2016-09-18T08:04:41.562Z,16.42
2016-09-18T08:05:52.560Z,16.4
2016-09-18T08:07:03.970Z,16.51
2016-09-18T08:08:14.975Z,16.59
2016-09-18T08:09:26.176Z,16.67
2016-09-18T08:10:37.169Z,16.7
2016-09-18T08:11:48.170Z,16.87
2016-09-18T08:12:59.178Z,16.91
2016-09-18T08:14:10.181Z,16.97
2016-09-18T08:15:21.180Z,17.05
2016-09-18T08:16:32.187Z,17.1
2016-09-18T08:17:43.206Z,17.17
2016-09-18T08:18:54.210Z,17.32
2016-09-18T08:20:05.226Z,17.35
2016-09-18T08:21:16.480Z,17.38
2016-09-18T08:22:27.484Z,17.49
2016-09-18T08:23:38.485Z,17.49
2016-09-18T08:24:49.493Z,17.43
2016-09-18T08:26:00.698Z,17.45
2016-09-18T08:27:11.691Z,17.42
2016-09-18T08:28:22.704Z,17.55
2016-09-18T08:29:33.700Z,17.87
2016-09-18T08:30:44.706Z,18.36
2016-09-18T08:31:55.701Z,18.75
2016-09-18T08:33:06.712Z,19.12
2016-09-18T08:34:17.722Z,19.4
2016-09-18T08:35:28.932Z,19.56
2016-09-18T08:36:39.941Z,19.61
2016-09-18T08:37:50.965Z,19.64
2016-09-18T08:39:02.385Z,19.49
2016-09-18T08:40:13.393Z,19.52
2016-09-18T08:41:24.402Z,19.75
2016-09-18T08:42:35.413Z,19.82
2016-09-18T08:43:46.420Z,19.93
2016-09-18T08:44:57.433Z,19.97
2016-09-18T08:46:08.440Z,19.92
2016-09-18T08:47:19.449Z,19.78
2016-09-18T08:48:30.454Z,19.79
2016-09-18T08:49:41.458Z,19.78
2016-09-18T08:50:52.694Z,19.82
2016-09-18T08:52:03.700Z,19.82
2016-09-18T08:53:14.704Z,19.8
2016-09-18T08:54:25.703Z,19.75
2016-09-18T08:55:36.707Z,19.68
2016-09-18T08:56:47.713Z,19.67
2016-09-18T08:57:58.939Z,19.68
2016-09-18T08:59:09.949Z,19.65
2016-09-18T09:00:20.968Z,19.68
2016-09-18T09:01:31.974Z,19.6
2016-09-18T09:02:42.985Z,19.56
2016-09-18T09:03:54.018Z,19.67
2016-09-18T09:05:05.247Z,19.83
2016-09-18T09:06:16.465Z,19.92
2016-09-18T09:07:27.466Z,19.9
2016-09-18T09:08:38.470Z,20.04
2016-09-18T09:09:49.687Z,20.04
2016-09-18T09:11:00.687Z,19.93
2016-09-18T09:12:11.689Z,20.05
2016-09-18T09:13:22.695Z,20.23
2016-09-18T09:14:33.724Z,20.23
2016-09-18T09:15:44.737Z,20.46
2016-09-18T09:16:55.744Z,20.76
2016-09-18T09:18:06.754Z,20.82
2016-09-18T09:19:17.777Z,20.79
2016-09-18T09:20:28.781Z,21
2016-09-18T09:21:39.841Z,21.04
2016-09-18T09:22:50.842Z,21.51
2016-09-18T09:24:01.844Z,21.76
2016-09-18T09:25:13.255Z,21.86
2016-09-18T09:26:24.483Z,22.12
2016-09-18T09:27:35.495Z,22.45
2016-09-18T09:28:46.514Z,22.86
2016-09-18T09:29:57.531Z,22.94
2016-09-18T09:31:08.544Z,22.82
2016-09-18T09:32:19.764Z,22.49
2016-09-18T09:33:30.791Z,22.22
2016-09-18T09:34:42.000Z,22.05
2016-09-18T09:35:53.220Z,21.86
2016-09-18T09:37:04.245Z,21.68
2016-09-18T09:38:15.265Z,21.51
2016-09-18T09:39:26.284Z,21.38
2016-09-18T09:40:37.491Z,21.34
2016-09-18T09:41:48.507Z,21.3
2016-09-18T09:42:59.514Z,21.16
2016-09-18T09:44:10.530Z,21.09
2016-09-18T09:45:21.534Z,21.06
2016-09-18T09:46:32.548Z,20.94
2016-09-18T09:47:43.765Z,21.01
2016-09-18T09:48:54.774Z,21.51
2016-09-18T09:50:05.794Z,21.8
2016-09-18T09:51:16.807Z,22.26
2016-09-18T09:52:28.019Z,22.67
2016-09-18T09:53:39.235Z,22.96
2016-09-18T09:54:50.252Z,23.4
2016-09-18T09:56:01.464Z,23.75
2016-09-18T09:57:12.487Z,23.99
2016-09-18T09:58:23.506Z,23.87
2016-09-18T09:59:34.516Z,23.96
2016-09-18T10:00:45.530Z,23.9
2016-09-18T10:01:56.756Z,23.78
2016-09-18T10:03:07.767Z,23.78
2016-09-18T10:04:18.790Z,23.57
2016-09-18T10:05:29.802Z,23.45
2016-09-18T10:06:40.819Z,23.44
2016-09-18T10:07:52.032Z,23.67
2016-09-18T10:09:03.255Z,24.09
2016-09-18T10:10:14.268Z,24.61
2016-09-18T10:11:25.291Z,24.83
2016-09-18T10:12:36.309Z,24.87
2016-09-18T10:13:47.318Z,24.9
2016-09-18T10:14:58.331Z,25.23
2016-09-18T10:16:09.339Z,25.17
2016-09-18T10:17:20.367Z,25.15
2016-09-18T10:18:31.382Z,25.09
2016-09-18T10:19:42.405Z,25.04
2016-09-18T10:20:53.424Z,25
2016-09-18T10:22:04.692Z,24.9
2016-09-18T10:23:15.709Z,24.74
2016-09-18T10:24:26.727Z,24.61
2016-09-18T10:25:37.742Z,24.39
2016-09-18T10:26:48.760Z,24.33
2016-09-18T10:27:59.982Z,24.48
2016-09-18T10:29:11.202Z,24.55
2016-09-18T10:30:22.219Z,24.77
2016-09-18T10:31:33.240Z,24.85
2016-09-18T10:32:44.475Z,24.93
2016-09-18T10:33:55.487Z,25.17
2016-09-18T10:35:06.502Z,25.42
2016-09-18T10:36:17.722Z,25.7
2016-09-18T10:37:28.942Z,25.74
2016-09-18T10:38:39.998Z,25.47
2016-09-18T10:39:51.017Z,25.42
2016-09-18T10:41:02.024Z,25.09
2016-09-18T10:42:13.238Z,24.82
2016-09-18T10:43:24.464Z,24.96
2016-09-18T10:44:35.472Z,25.26
2016-09-18T10:45:46.688Z,25.44
2016-09-18T10:46:57.914Z,25.63
2016-09-18T10:48:08.924Z,25.78
2016-09-18T10:49:19.938Z,26.22
2016-09-18T10:50:31.357Z,26.47
2016-09-18T10:51:42.378Z,26.75
2016-09-18T10:52:53.393Z,27.06
2016-09-18T10:54:04.430Z,26.86
2016-09-18T10:55:15.446Z,26.64
2016-09-18T10:56:26.469Z,26.87
2016-09-18T10:57:37.478Z,26.99
2016-09-18T10:58:48.499Z,27.11
2016-09-18T10:59:59.515Z,27.28
2016-09-18T11:01:10.545Z,27.36
2016-09-18T11:02:21.773Z,27.52
2016-09-18T11:03:32.791Z,27.59
2016-09-18T11:04:43.818Z,27.71
2016-09-18T11:05:55.039Z,27.83
2016-09-18T11:07:06.064Z,27.43
2016-09-18T11:08:17.086Z,27.13
2016-09-18T11:09:28.097Z,26.79
2016-09-18T11:10:39.106Z,26.44
2016-09-18T11:11:50.132Z,26.17
2016-09-18T11:13:01.164Z,25.88
2016-09-18T11:14:12.380Z,25.71
2016-09-18T11:15:23.389Z,25.34
2016-09-18T11:16:34.413Z,25.15
2016-09-18T11:17:45.432Z,25.09
2016-09-18T11:18:56.442Z,24.78
2016-09-18T11:20:07.462Z,24.71
2016-09-18T11:21:18.488Z,24.74
2016-09-18T11:22:29.558Z,24.74
2016-09-18T11:23:40.570Z,24.66
2016-09-18T11:24:51.591Z,24.74
2016-09-18T11:26:02.606Z,24.9
2016-09-18T11:27:13.619Z,24.86
2016-09-18T11:28:24.633Z,24.86
2016-09-18T11:29:35.651Z,24.75
2016-09-18T11:30:46.666Z,24.61
2016-09-18T11:31:57.688Z,24.58
2016-09-18T11:33:08.698Z,24.33
2016-09-18T11:34:19.714Z,24.37
2016-09-18T11:35:30.939Z,24.39
2016-09-18T11:36:41.952Z,24.22
2016-09-18T11:37:52.964Z,24.07
2016-09-18T11:39:03.983Z,23.9
2016-09-18T11:40:15.004Z,23.63
2016-09-18T11:41:26.015Z,23.62
2016-09-18T11:42:37.028Z,23.38
2016-09-18T11:43:48.048Z,23.44
2016-09-18T11:44:59.070Z,23.63
2016-09-18T11:46:10.479Z,23.75
2016-09-18T11:47:21.688Z,23.9
2016-09-18T11:48:33.103Z,23.78
2016-09-18T11:49:44.110Z,23.9
2016-09-18T11:50:55.119Z,24.11
2016-09-18T11:52:06.143Z,24.42
2016-09-18T11:53:17.152Z,24.56
2016-09-18T11:54:28.155Z,24.52
2016-09-18T11:55:39.162Z,24.49
2016-09-18T11:56:50.176Z,24.77
2016-09-18T11:58:01.201Z,24.75
2016-09-18T11:59:12.219Z,24.9
2016-09-18T12:00:23.225Z,25.3
2016-09-18T12:01:34.235Z,25.74
2016-09-18T12:02:45.247Z,26.03
2016-09-18T12:03:56.471Z,26.17
2016-09-18T12:05:07.484Z,26.17
2016-09-18T12:06:18.499Z,25.97
2016-09-18T12:07:29.715Z,25.7
2016-09-18T12:08:40.738Z,25.41
2016-09-18T12:09:51.951Z,25.15
2016-09-18T12:11:02.960Z,25.01
2016-09-18T12:12:13.976Z,24.77
2016-09-18T12:13:25.201Z,24.51
2016-09-18T12:14:36.210Z,24.32
2016-09-18T12:15:47.213Z,23.92
2016-09-18T12:16:58.227Z,23.92
2016-09-18T12:18:09.462Z,23.77
2016-09-18T12:19:20.466Z,23.62
2016-09-18T12:20:31.683Z,23.63
2016-09-18T12:21:42.708Z,23.56
2016-09-18T12:22:53.764Z,23.71
2016-09-18T12:24:04.976Z,23.85
2016-09-18T12:25:15.987Z,24.04
2016-09-18T12:26:27.008Z,24.21
2016-09-18T12:27:38.020Z,24.3
2016-09-18T12:28:49.040Z,24.39
2016-09-18T12:30:00.060Z,24.36
2016-09-18T12:31:11.073Z,24.33
2016-09-18T12:32:22.086Z,24.34
2016-09-18T12:33:33.093Z,24.32
2016-09-18T12:34:44.102Z,24.07
2016-09-18T12:35:55.107Z,24.12
2016-09-18T12:37:06.321Z,24.18
2016-09-18T12:38:17.531Z,24.34
2016-09-18T12:39:28.545Z,24.4
2016-09-18T12:40:39.561Z,24.37
2016-09-18T12:41:50.564Z,24.46
2016-09-18T12:43:01.575Z,24.46
2016-09-18T12:44:12.583Z,24.49
2016-09-18T12:45:23.596Z,24.48
2016-09-18T12:46:34.593Z,24.46
2016-09-18T12:47:45.610Z,24.54
2016-09-18T12:48:56.618Z,24.69
2016-09-18T12:50:07.639Z,24.74
2016-09-18T12:51:18.654Z,24.85
2016-09-18T12:52:29.666Z,24.87
2016-09-18T12:53:40.681Z,24.86
2016-09-18T12:54:51.703Z,24.71
2016-09-18T12:56:02.919Z,24.71
2016-09-18T12:57:14.124Z,24.7
2016-09-18T12:58:25.130Z,24.74
2016-09-18T12:59:36.137Z,24.74
2016-09-18T13:00:47.572Z,24.63
2016-09-18T13:01:58.950Z,24.48
2016-09-18T13:03:10.144Z,24.37
2016-09-18T13:04:21.550Z,24.21
2016-09-18T13:05:33.091Z,24.26
2016-09-18T13:06:44.625Z,24.17
2016-09-18T13:07:56.364Z,24.19
2016-09-18T13:09:07.932Z,24.21
2016-09-18T13:10:19.192Z,24.19
2016-09-18T13:11:30.626Z,24
2016-09-18T13:12:42.201Z,23.81
2016-09-18T13:13:53.921Z,23.63
2016-09-18T13:15:05.969Z,23.44
2016-09-18T13:16:17.913Z,23.35
2016-09-18T13:17:30.056Z,23.26
2016-09-18T13:18:41.867Z,23.28
2016-09-18T13:19:53.573Z,23.42
2016-09-18T13:21:05.375Z,23.5
2016-09-18T13:22:17.004Z,23.7
2016-09-18T13:23:28.715Z,23.74
2016-09-18T13:24:40.578Z,23.89
2016-09-18T13:25:52.089Z,23.94
2016-09-18T13:27:03.829Z,24.02
2016-09-18T13:28:15.652Z,24.11
2016-09-18T13:29:26.924Z,24.15
2016-09-18T13:30:38.336Z,24.3
2016-09-18T13:31:49.892Z,24.22
2016-09-18T13:33:01.891Z,24.34
2016-09-18T13:34:13.689Z,24.17
2016-09-18T13:35:25.623Z,24.18
2016-09-18T13:36:37.319Z,24.19
2016-09-18T13:37:48.995Z,24.12
2016-09-18T13:39:00.705Z,24
2016-09-18T13:40:12.395Z,23.82
2016-09-18T13:41:23.983Z,23.74
2016-09-18T13:42:35.635Z,23.7
2016-09-18T13:43:47.353Z,23.71
2016-09-18T13:44:58.558Z,23.7
2016-09-18T13:46:09.582Z,23.52
2016-09-18T13:47:21.123Z,23.52
2016-09-18T13:48:32.587Z,23.26
2016-09-18T13:49:44.299Z,23.14
2016-09-18T13:50:56.018Z,23.19
2016-09-18T13:52:07.800Z,23.1
2016-09-18T13:53:19.099Z,22.96
2016-09-18T13:54:30.449Z,22.85
2016-09-18T13:55:42.147Z,22.76
2016-09-18T13:56:53.612Z,22.92
2016-09-18T13:58:05.003Z,22.92
2016-09-18T13:59:16.258Z,22.88
2016-09-18T14:00:27.333Z,22.91
2016-09-18T14:01:38.582Z,23.09
2016-09-18T14:02:49.852Z,23.24
2016-09-18T14:04:01.243Z,23.38
2016-09-18T14:05:12.658Z,23.45
2016-09-18T14:06:24.120Z,23.47
2016-09-18T14:07:35.639Z,23.48
2016-09-18T14:08:47.175Z,23.44
2016-09-18T14:09:58.686Z,23.26
2016-09-18T14:11:10.388Z,23.28
2016-09-18T14:12:21.723Z,23.22
2016-09-18T14:13:32.934Z,23.16
2016-09-18T14:14:43.951Z,23.14
2016-09-18T14:15:55.080Z,23.03
2016-09-18T14:17:06.170Z,23.04
2016-09-18T14:18:17.526Z,23.09
2016-09-18T14:19:28.872Z,23.03
2016-09-18T14:20:39.883Z,23.1
2016-09-18T14:21:50.901Z,22.97
2016-09-18T14:23:02.112Z,22.94
2016-09-18T14:24:13.175Z,22.94
2016-09-18T14:25:24.814Z,22.86
2016-09-18T14:26:36.077Z,22.82
2016-09-18T14:27:47.584Z,22.84
2016-09-18T14:28:59.114Z,22.85
2016-09-18T14:30:11.111Z,22.82
2016-09-18T14:31:22.568Z,22.82
2016-09-18T14:32:34.066Z,22.76
2016-09-18T14:33:45.557Z,22.66
2016-09-18T14:34:57.319Z,22.66
2016-09-18T14:36:08.817Z,22.73
2016-09-18T14:37:20.344Z,22.64
2016-09-18T14:38:32.019Z,22.73
2016-09-18T14:39:43.729Z,22.81
2016-09-18T14:40:55.574Z,22.73
2016-09-18T14:42:07.283Z,22.78
2016-09-18T14:43:19.180Z,22.82
2016-09-18T14:44:30.850Z,22.67
2016-09-18T14:45:42.499Z,22.63
2016-09-18T14:46:54.072Z,22.6
2016-09-18T14:48:05.867Z,22.6
2016-09-18T14:49:17.799Z,22.59
2016-09-18T14:50:29.461Z,22.52
2016-09-18T14:51:41.066Z,22.51
2016-09-18T14:52:52.550Z,22.46
2016-09-18T14:54:04.193Z,22.46
2016-09-18T14:55:15.709Z,22.45
2016-09-18T14:56:27.552Z,22.38
2016-09-18T14:57:39.322Z,22.24
2016-09-18T14:58:51.088Z,22.26
2016-09-18T15:00:02.741Z,22.29
2016-09-18T15:01:14.408Z,22.36
2016-09-18T15:02:26.053Z,22.38
2016-09-18T15:03:37.859Z,22.23
2016-09-18T15:04:49.105Z,22.29
2016-09-18T15:06:00.116Z,22.27
2016-09-18T15:07:11.141Z,22.33
2016-09-18T15:08:22.149Z,22.48
2016-09-18T15:09:33.166Z,22.54
2016-09-18T15:10:44.175Z,22.41
2016-09-18T15:11:55.176Z,22.46
2016-09-18T15:13:06.199Z,22.42
2016-09-18T15:14:17.202Z,22.45
2016-09-18T15:15:28.215Z,22.48
2016-09-18T15:16:39.227Z,22.34
2016-09-18T15:17:50.242Z,22.34
2016-09-18T15:19:01.241Z,22.48